Time;durP1;ratioP1;P1;durP2;ratioP2;P2;SDS_P1;SDS_P2;PMS_P1;PMS_P2;Temp;Humidity;BMP_temperature;BMP_pressure;BME280_temperature;BME280_humidity;BME280_pressure;Samples;Min_cycle;Max_cycle;Signal;HPM_P1;HPM_P2
2023/07/02 00:02:05;;;;;;;4.35;1.90;;;;;;;-145.41;100.00;58600.66;4966465;28;20494;-73
2023/07/02 00:04:30;;;;;;;3.33;1.60;;;;;;;-145.41;100.00;58600.66;4970656;28;20481;-73
2023/07/02 00:06:56;;;;;;;4.13;1.58;;;;;;;-145.41;100.00;58600.66;4965330;28;20118;-73
2023/07/02 00:09:21;;;;;;;3.90;1.65;;;;;;;-145.41;100.00;58600.66;4965365;28;20119;-74
2023/07/02 00:11:47;;;;;;;3.72;1.52;;;;;;;-145.41;100.00;58600.66;4964703;28;20031;-72
2023/07/02 00:14:13;;;;;;;3.53;1.50;;;;;;;-145.41;100.00;58600.66;4967018;28;20027;-73
2023/07/02 00:16:42;;;;;;;4.20;1.50;;;;;;;-145.41;100.00;58600.66;4967403;28;20130;-73
2023/07/02 00:19:07;;;;;;;3.78;1.58;;;;;;;-145.41;100.00;58600.66;4965382;28;20121;-74
2023/07/02 00:21:33;;;;;;;2.38;1.40;;;;;;;-145.41;100.00;58600.66;4967834;28;20130;-73
2023/07/02 00:23:59;;;;;;;3.33;1.58;;;;;;;-145.41;100.00;58600.66;4949416;28;20074;-73
2023/07/02 00:26:25;;;;;;;2.80;1.20;;;;;;;-145.41;100.00;58600.66;4947260;28;20034;-73
2023/07/02 00:28:52;;;;;;;3.38;1.70;;;;;;;-145.41;100.00;58600.66;4965747;28;20038;-73
2023/07/02 00:31:18;;;;;;;3.13;1.67;;;;;;;-145.41;100.00;58600.66;4967068;28;20031;-73
2023/07/02 00:33:43;;;;;;;2.65;1.45;;;;;;;-145.41;100.00;58600.66;4952372;28;20545;-73
2023/07/02 00:36:14;;;;;;;4.72;1.42;;;;;;;-145.41;100.00;58600.66;4954328;28;20490;-73
2023/07/02 00:38:45;;;;;;;2.50;1.38;;;;;;;-145.41;100.00;58600.66;4969562;28;20081;-73
2023/07/02 00:41:10;;;;;;;2.55;1.50;;;;;;;-145.41;100.00;58600.66;4941397;28;20062;-74
2023/07/02 00:43:36;;;;;;;4.15;1.63;;;;;;;-145.41;100.00;58600.66;4954014;28;20129;-73
2023/07/02 00:46:02;;;;;;;2.78;1.23;;;;;;;-145.41;100.00;58600.66;4968501;28;20125;-72
2023/07/02 00:48:29;;;;;;;3.53;1.15;;;;;;;-145.41;100.00;58600.66;4970147;28;20027;-73
2023/07/02 00:50:55;;;;;;;2.92;1.25;;;;;;;-145.41;100.00;58600.66;4971163;28;20051;-73
2023/07/02 00:53:20;;;;;;;3.55;1.60;;;;;;;-145.41;100.00;58600.66;4971611;28;20070;-73
2023/07/02 00:55:45;;;;;;;2.70;1.45;;;;;;;-145.41;100.00;58600.66;4951439;28;20027;-73
2023/07/02 00:58:11;;;;;;;2.95;1.30;;;;;;;-145.41;100.00;58600.66;4950176;28;20502;-73
2023/07/02 01:00:38;;;;;;;3.42;1.23;;;;;;;-145.41;100.00;58600.66;4953663;28;20035;-73
2023/07/02 01:03:03;;;;;;;3.13;1.35;;;;;;;-145.41;100.00;58600.66;4957735;28;20060;-73
2023/07/02 01:05:35;;;;;;;2.22;1.38;;;;;;;-145.41;100.00;58600.66;4951110;28;20023;-73
2023/07/02 01:08:02;;;;;;;2.75;1.35;;;;;;;-145.41;100.00;58600.66;4969500;28;20066;-73
2023/07/02 01:10:28;;;;;;;4.70;1.70;;;;;;;-145.41;100.00;58600.66;4951382;28;20037;-73
2023/07/02 01:12:55;;;;;;;2.58;1.20;;;;;;;-145.41;100.00;58600.66;4970395;28;20034;-74
2023/07/02 01:15:21;;;;;;;2.55;1.58;;;;;;;-145.41;100.00;58600.66;4968426;28;21016;-73
2023/07/02 01:17:48;;;;;;;4.43;1.75;;;;;;;-145.41;100.00;58600.66;4970284;28;20046;-73
2023/07/02 01:20:14;;;;;;;4.85;1.73;;;;;;;-145.41;100.00;58600.66;4953752;28;20034;-72
2023/07/02 01:22:40;;;;;;;2.28;1.25;;;;;;;-145.41;100.00;58600.66;4956981;28;20490;-72
2023/07/02 01:25:05;;;;;;;2.17;1.27;;;;;;;-145.41;100.00;58600.66;4968765;28;20038;-73
2023/07/02 01:27:31;;;;;;;2.67;1.42;;;;;;;-145.41;100.00;58600.66;4956135;28;20034;-73
2023/07/02 01:29:57;;;;;;;3.65;1.30;;;;;;;-145.41;100.00;58600.66;4971231;28;20504;-73
2023/07/02 01:32:22;;;;;;;3.85;1.50;;;;;;;-145.41;100.00;58600.66;4969656;28;20031;-72
2023/07/02 01:34:52;;;;;;;2.35;1.30;;;;;;;-145.41;100.00;58600.66;4950844;28;20498;-73
2023/07/02 01:37:18;;;;;;;3.03;1.23;;;;;;;-145.41;100.00;58600.66;4951326;28;20433;-74
2023/07/02 01:39:43;;;;;;;3.35;1.23;;;;;;;-145.41;100.00;58600.66;4969971;28;20038;-73
2023/07/02 01:42:12;;;;;;;2.58;1.20;;;;;;;-145.41;100.00;58600.66;4948881;28;20035;-73
2023/07/02 01:44:38;;;;;;;2.55;1.50;;;;;;;-145.41;100.00;58600.66;4969822;28;20125;-73
2023/07/02 01:47:04;;;;;;;2.90;1.25;;;;;;;-145.41;100.00;58600.66;4968767;28;20133;-73
2023/07/02 01:49:30;;;;;;;2.58;1.40;;;;;;;-145.41;100.00;58600.66;4952485;28;20599;-73
2023/07/02 01:51:56;;;;;;;2.65;1.40;;;;;;;-145.41;100.00;58600.66;4973135;28;20405;-73
2023/07/02 01:54:26;;;;;;;3.55;1.40;;;;;;;-145.41;100.00;58600.66;4952568;28;20520;-73
2023/07/02 01:56:52;;;;;;;6.30;1.60;;;;;;;-145.41;100.00;58600.66;4949093;28;20066;-73
2023/07/02 01:59:18;;;;;;;3.05;1.30;;;;;;;-145.41;100.00;58600.66;4951529;28;20128;-73
2023/07/02 02:01:43;;;;;;;3.72;1.52;;;;;;;-145.41;100.00;58600.66;4969620;28;20126;-73
2023/07/02 02:04:09;;;;;;;3.17;1.77;;;;;;;-145.41;100.00;58600.66;4950572;28;20121;-73
2023/07/02 02:06:35;;;;;;;3.15;1.60;;;;;;;-145.41;100.00;58600.66;4970024;28;20035;-73
2023/07/02 02:09:01;;;;;;;3.42;1.70;;;;;;;-145.41;100.00;58600.66;4967172;28;20129;-73
2023/07/02 02:11:27;;;;;;;3.58;1.70;;;;;;;-145.41;100.00;58600.66;4973842;28;20050;-73
2023/07/02 02:13:52;;;;;;;4.65;1.50;;;;;;;-145.41;100.00;58600.66;4953691;28;20035;-73
2023/07/02 02:16:18;;;;;;;4.38;1.75;;;;;;;-145.41;100.00;58600.66;4956153;28;20571;-73
2023/07/02 02:18:43;;;;;;;3.55;2.42;;;;;;;-145.41;100.00;58600.66;4973039;28;20382;-73
2023/07/02 02:21:08;;;;;;;5.57;1.90;;;;;;;-145.41;100.00;58600.66;4955551;28;20066;-73
2023/07/02 02:23:34;;;;;;;3.38;1.90;;;;;;;-145.41;100.00;58600.66;4964266;28;20054;-73
2023/07/02 02:25:59;;;;;;;3.97;1.80;;;;;;;-145.41;100.00;58600.66;4950459;28;20155;-73
2023/07/02 02:28:25;;;;;;;2.85;1.50;;;;;;;-145.41;100.00;58600.66;4968940;28;20067;-73
2023/07/02 02:30:50;;;;;;;2.90;1.80;;;;;;;-145.41;100.00;58600.66;4952249;28;20039;-73
2023/07/02 02:33:15;;;;;;;3.20;1.70;;;;;;;-145.41;100.00;58600.66;4953989;28;20041;-73
2023/07/02 02:35:42;;;;;;;3.03;1.98;;;;;;;-145.41;100.00;58600.66;4949564;28;20109;-73
2023/07/02 02:38:08;;;;;;;3.05;2.10;;;;;;;-145.41;100.00;58600.66;4949957;28;20493;-73
2023/07/02 02:40:34;;;;;;;3.28;1.70;;;;;;;-145.41;100.00;58600.66;4947494;28;20061;-73
2023/07/02 02:43:00;;;;;;;2.92;1.88;;;;;;;-145.41;100.00;58600.66;4961665;28;20514;-73
2023/07/02 02:45:26;;;;;;;2.85;2.08;;;;;;;-145.41;100.00;58600.66;4971395;28;20066;-73
2023/07/02 02:47:52;;;;;;;3.10;2.22;;;;;;;-145.41;100.00;58600.66;4955621;28;20465;-73
2023/07/02 02:50:17;;;;;;;3.45;2.38;;;;;;;-145.41;100.00;58600.66;4949320;28;20117;-73
2023/07/02 02:52:42;;;;;;;5.95;3.10;;;;;;;-145.41;100.00;58600.66;4966793;28;20118;-73
2023/07/02 02:55:10;;;;;;;4.72;2.72;;;;;;;-145.41;100.00;58600.66;4950731;28;20035;-72
2023/07/02 02:57:36;;;;;;;3.80;2.35;;;;;;;-145.41;100.00;58600.66;4969219;28;20033;-73
2023/07/02 03:00:02;;;;;;;3.63;2.35;;;;;;;-145.41;100.00;58600.66;4951432;28;20473;-73
2023/07/02 03:02:28;;;;;;;4.28;2.63;;;;;;;-145.41;100.00;58600.66;4951779;28;20081;-72
2023/07/02 03:04:53;;;;;;;3.88;2.17;;;;;;;-145.41;100.00;58600.66;4950771;28;20067;-73
2023/07/02 03:07:19;;;;;;;4.55;2.40;;;;;;;-145.41;100.00;58600.66;4946234;28;20126;-73
2023/07/02 03:09:44;;;;;;;4.53;2.08;;;;;;;-145.41;100.00;58600.66;4970020;28;20042;-73
2023/07/02 03:12:10;;;;;;;4.85;1.98;;;;;;;-145.41;100.00;58600.66;4950628;28;20121;-73
2023/07/02 03:14:35;;;;;;;5.13;2.42;;;;;;;-145.41;100.00;58600.66;4954316;28;20110;-73
2023/07/02 03:17:01;;;;;;;4.80;2.28;;;;;;;-145.41;100.00;58600.66;4972464;28;20409;-73
2023/07/02 03:19:26;;;;;;;5.82;2.30;;;;;;;-145.41;100.00;58600.66;4970522;28;20182;-72
2023/07/02 03:21:52;;;;;;;4.68;2.40;;;;;;;-145.41;100.00;58600.66;4969032;28;20047;-73
2023/07/02 03:24:17;;;;;;;5.65;2.10;;;;;;;-145.41;100.00;58600.66;4972200;28;20043;-73
2023/07/02 03:26:44;;;;;;;3.15;2.00;;;;;;;-145.41;100.00;58600.66;4971684;28;20038;-73
2023/07/02 03:29:10;;;;;;;5.03;1.83;;;;;;;-145.41;100.00;58600.66;4971656;28;20489;-72
2023/07/02 03:31:35;;;;;;;2.88;1.90;;;;;;;-145.41;100.00;58600.66;4972529;28;20035;-73
2023/07/02 03:34:08;;;;;;;4.72;2.17;;;;;;;-145.41;100.00;58600.66;4971703;28;20035;-73
2023/07/02 03:36:33;;;;;;;5.75;2.05;;;;;;;-145.41;100.00;58600.66;4970655;28;20038;-73
2023/07/02 03:38:59;;;;;;;6.00;1.73;;;;;;;-145.41;100.00;58600.66;4953109;28;20034;-72
2023/07/02 03:41:24;;;;;;;2.80;1.70;;;;;;;-145.41;100.00;58600.66;4972254;28;20450;-73
2023/07/02 03:43:50;;;;;;;3.92;1.80;;;;;;;-145.41;100.00;58600.66;4967958;28;20034;-73
2023/07/02 03:46:16;;;;;;;3.88;1.98;;;;;;;-145.41;100.00;58600.66;4970984;28;20505;-73
2023/07/02 03:48:41;;;;;;;3.38;1.90;;;;;;;-145.41;100.00;58600.66;4954348;28;20038;-73
2023/07/02 03:51:07;;;;;;;5.25;2.10;;;;;;;-145.41;100.00;58600.66;4971596;28;20035;-73
2023/07/02 03:53:32;;;;;;;3.72;1.63;;;;;;;-145.41;100.00;58600.66;4970922;28;20030;-73
2023/07/02 03:55:57;;;;;;;2.58;1.50;;;;;;;-145.41;100.00;58600.66;4969531;28;20073;-73
2023/07/02 03:58:23;;;;;;;3.88;2.13;;;;;;;-145.41;100.00;58600.66;4971430;28;20049;-73
2023/07/02 04:00:51;;;;;;;3.33;2.03;;;;;;;-145.41;100.00;58600.66;4971217;28;20395;-72
2023/07/02 04:03:16;;;;;;;4.13;1.80;;;;;;;-145.41;100.00;58600.66;4971296;28;20170;-73
2023/07/02 04:05:42;;;;;;;2.47;1.73;;;;;;;-145.41;100.00;58600.66;4973174;28;20496;-73
2023/07/02 04:08:07;;;;;;;5.90;1.65;;;;;;;-145.41;100.00;58600.66;4975372;28;20037;-73
2023/07/02 04:10:33;;;;;;;3.28;1.75;;;;;;;-145.41;100.00;58600.66;4972359;28;20508;-73
2023/07/02 04:12:58;;;;;;;3.30;1.75;;;;;;;-145.41;100.00;58600.66;4974886;28;20035;-73
2023/07/02 04:15:25;;;;;;;3.75;1.80;;;;;;;-145.41;100.00;58600.66;4974543;28;20113;-73
2023/07/02 04:17:50;;;;;;;6.38;2.10;;;;;;;-145.41;100.00;58600.66;4975749;28;20456;-73
2023/07/02 04:20:16;;;;;;;2.97;2.03;;;;;;;-145.41;100.00;58600.66;4972667;28;20170;-73
2023/07/02 04:22:41;;;;;;;3.75;1.92;;;;;;;-145.41;100.00;58600.66;4975426;28;20038;-73
2023/07/02 04:25:07;;;;;;;4.63;1.90;;;;;;;-145.41;100.00;58600.66;4975574;28;20034;-73
2023/07/02 04:27:32;;;;;;;5.45;2.28;;;;;;;-145.41;100.00;58600.66;4974782;28;20027;-73
2023/07/02 04:29:58;;;;;;;3.33;2.10;;;;;;;-145.41;100.00;58600.66;4975004;28;20390;-73
2023/07/02 04:32:23;;;;;;;3.08;1.75;;;;;;;-145.41;100.00;58600.66;4975631;28;20499;-73
2023/07/02 04:34:49;;;;;;;4.50;1.95;;;;;;;-145.41;100.00;58600.66;4958215;28;20457;-73
2023/07/02 04:37:15;;;;;;;3.60;1.95;;;;;;;-145.41;100.00;58600.66;4974880;28;20034;-73
2023/07/02 04:39:40;;;;;;;3.38;1.95;;;;;;;-145.41;100.00;58600.66;4973253;28;20038;-73
2023/07/02 04:42:06;;;;;;;3.70;1.80;;;;;;;-145.41;100.00;58600.66;4971886;28;20074;-73
2023/07/02 04:44:31;;;;;;;3.42;2.00;;;;;;;-145.41;100.00;58600.66;4971412;28;20041;-73
2023/07/02 04:47:02;;;;;;;2.60;1.67;;;;;;;-145.41;100.00;58600.66;4974483;28;20397;-73
2023/07/02 04:49:27;;;;;;;3.20;1.98;;;;;;;-145.41;100.00;58600.66;4965696;28;20035;-73
2023/07/02 04:51:53;;;;;;;6.50;2.55;;;;;;;-145.41;100.00;58600.66;4957363;28;20637;-73
2023/07/02 04:54:22;;;;;;;2.80;1.67;;;;;;;-145.41;100.00;58600.66;4957757;28;20042;-73
2023/07/02 04:56:48;;;;;;;2.92;1.80;;;;;;;-145.41;100.00;58600.66;4954373;28;20045;-73
2023/07/02 04:59:14;;;;;;;4.00;1.70;;;;;;;-145.41;100.00;58600.66;4972493;28;20034;-73
2023/07/02 05:01:40;;;;;;;2.90;1.70;;;;;;;-145.41;100.00;58600.66;4975002;28;20046;-74
2023/07/02 05:04:05;;;;;;;7.57;2.10;;;;;;;-145.41;100.00;58600.66;4957816;28;20046;-73
2023/07/02 05:06:31;;;;;;;7.78;2.17;;;;;;;-145.41;100.00;58600.66;4957490;28;20134;-72
2023/07/02 05:08:56;;;;;;;3.80;1.70;;;;;;;-145.41;100.00;58600.66;4956556;28;20034;-73
2023/07/02 05:11:21;;;;;;;4.85;1.60;;;;;;;-145.41;100.00;58600.66;4974916;28;20038;-73
2023/07/02 05:13:47;;;;;;;3.30;1.90;;;;;;;-145.41;100.00;58600.66;4972738;28;20043;-73
2023/07/02 05:16:13;;;;;;;2.97;1.67;;;;;;;-145.41;100.00;58600.66;4974087;28;20053;-73
2023/07/02 05:18:38;;;;;;;3.10;1.80;;;;;;;-145.41;100.00;58600.66;4941469;28;20405;-73
2023/07/02 05:21:04;;;;;;;2.70;1.55;;;;;;;-145.41;100.00;58600.66;4973509;28;20031;-73
2023/07/02 05:23:29;;;;;;;3.67;1.88;;;;;;;-145.41;100.00;58600.66;4955717;28;20427;-73
2023/07/02 05:25:54;;;;;;;3.35;2.10;;;;;;;-145.41;100.00;58600.66;4955717;28;20094;-73
2023/07/02 05:28:20;;;;;;;3.67;1.83;;;;;;;-145.41;100.00;58600.66;4974517;28;20034;-73
2023/07/02 05:30:45;;;;;;;3.78;1.70;;;;;;;-145.41;100.00;58600.66;4973693;28;20166;-73
2023/07/02 05:33:10;;;;;;;4.90;1.80;;;;;;;-145.41;100.00;58600.66;4973869;28;20045;-73
2023/07/02 05:35:36;;;;;;;3.90;1.80;;;;;;;-145.41;100.00;58600.66;4973428;28;20049;-73
2023/07/02 05:38:01;;;;;;;2.83;1.70;;;;;;;-145.41;100.00;58600.66;4971484;28;20461;-72
2023/07/02 05:40:26;;;;;;;3.85;1.73;;;;;;;-145.41;100.00;58600.66;4973056;28;20523;-73
2023/07/02 05:42:51;;;;;;;3.60;1.80;;;;;;;-145.41;100.00;58600.66;4974246;28;20552;-73
2023/07/02 05:45:17;;;;;;;5.00;1.70;;;;;;;-145.41;100.00;58600.66;4974116;28;20505;-73
2023/07/02 05:47:42;;;;;;;2.67;1.65;;;;;;;-145.41;100.00;58600.66;4974197;28;20089;-74
2023/07/02 05:50:08;;;;;;;4.45;1.80;;;;;;;-145.41;100.00;58600.66;4972881;28;20038;-74
2023/07/02 05:52:33;;;;;;;5.18;1.70;;;;;;;-145.41;100.00;58600.66;4973113;28;20023;-73
2023/07/02 05:54:59;;;;;;;2.65;1.65;;;;;;;-145.41;100.00;58600.66;4973959;28;20477;-73
2023/07/02 05:57:24;;;;;;;2.97;1.38;;;;;;;-145.41;100.00;58600.66;4974001;28;20062;-73
2023/07/02 05:59:49;;;;;;;3.22;1.83;;;;;;;-145.41;100.00;58600.66;4969640;28;20177;-73
2023/07/02 06:02:15;;;;;;;4.47;1.73;;;;;;;-145.41;100.00;58600.66;4973899;28;20047;-73
2023/07/02 06:04:40;;;;;;;7.10;1.45;;;;;;;-145.41;100.00;58600.66;4973936;28;20054;-74
2023/07/02 06:07:05;;;;;;;2.47;1.63;;;;;;;-145.41;100.00;58600.66;4973822;28;20042;-74
2023/07/02 06:09:32;;;;;;;5.47;1.88;;;;;;;-145.41;100.00;58600.66;4972488;28;20041;-73
2023/07/02 06:11:58;;;;;;;4.93;1.67;;;;;;;-145.41;100.00;58600.66;4972490;28;20027;-73
2023/07/02 06:14:25;;;;;;;4.03;1.45;;;;;;;-145.41;100.00;58600.66;4971616;28;20090;-73
2023/07/02 06:16:52;;;;;;;3.47;1.85;;;;;;;-145.41;100.00;58600.66;4956291;28;20050;-73
2023/07/02 06:19:17;;;;;;;4.22;1.40;;;;;;;-145.41;100.00;58600.66;4973077;28;20405;-73
2023/07/02 06:21:42;;;;;;;2.90;1.45;;;;;;;-145.41;100.00;58600.66;4973414;28;20031;-73
2023/07/02 06:24:08;;;;;;;2.65;1.40;;;;;;;-145.41;100.00;58600.66;4973509;28;20413;-73
2023/07/02 06:26:33;;;;;;;2.60;1.33;;;;;;;-145.41;100.00;58600.66;4955345;28;20436;-73
2023/07/02 06:28:58;;;;;;;4.10;1.40;;;;;;;-145.41;100.00;58600.66;4972123;28;20033;-73
2023/07/02 06:31:24;;;;;;;2.85;1.50;;;;;;;-145.41;100.00;58600.66;4973459;28;20023;-73
2023/07/02 06:33:49;;;;;;;5.35;1.40;;;;;;;-145.41;100.00;58600.66;4973287;28;20434;-73
2023/07/02 06:36:15;;;;;;;10.07;1.35;;;;;;;-145.41;100.00;58600.66;4955995;28;20437;-73
2023/07/02 06:38:40;;;;;;;3.25;1.60;;;;;;;-145.41;100.00;58600.66;4972730;28;20117;-73
2023/07/02 06:41:06;;;;;;;2.88;1.40;;;;;;;-145.41;100.00;58600.66;4972150;28;20390;-73
2023/07/02 06:43:31;;;;;;;3.45;1.38;;;;;;;-145.41;100.00;58600.66;4971414;28;20047;-73
2023/07/02 06:45:56;;;;;;;3.00;1.35;;;;;;;-145.41;100.00;58600.66;4972579;28;20149;-73
2023/07/02 06:48:22;;;;;;;3.40;1.23;;;;;;;-145.41;100.00;58600.66;4955657;28;20126;-73
2023/07/02 06:50:47;;;;;;;2.03;1.15;;;;;;;-145.41;100.00;58600.66;4972381;28;20174;-73
2023/07/02 06:53:13;;;;;;;5.20;1.17;;;;;;;-145.41;100.00;58600.66;4973080;28;20382;-72
2023/07/02 06:55:39;;;;;;;3.30;1.13;;;;;;;-145.41;100.00;58600.66;4969152;28;20042;-73
2023/07/02 06:58:05;;;;;;;2.67;1.40;;;;;;;-145.41;100.00;58600.66;4972650;28;20379;-73
2023/07/02 07:00:32;;;;;;;2.40;1.30;;;;;;;-145.41;100.00;58600.66;4954675;28;20046;-73
2023/07/02 07:02:58;;;;;;;3.22;1.60;;;;;;;-145.41;100.00;58600.66;4970926;28;20034;-73
2023/07/02 07:05:23;;;;;;;2.53;1.30;;;;;;;-145.41;100.00;58600.66;4972480;28;20042;-73
2023/07/02 07:07:48;;;;;;;2.83;1.23;;;;;;;-145.41;100.00;58600.66;4972509;28;20532;-73
2023/07/02 07:10:14;;;;;;;2.70;1.15;;;;;;;-145.41;100.00;58600.66;4954775;28;20038;-74
2023/07/02 07:12:39;;;;;;;2.65;1.48;;;;;;;-145.41;100.00;58600.66;4972779;28;20402;-73
2023/07/02 07:15:05;;;;;;;2.28;1.20;;;;;;;-145.41;100.00;58600.66;4970862;28;20486;-73
2023/07/02 07:17:30;;;;;;;2.65;1.40;;;;;;;-145.41;100.00;58600.66;4972552;28;20046;-73
2023/07/02 07:19:55;;;;;;;5.30;1.10;;;;;;;-145.41;100.00;58600.66;4971319;28;20037;-73
2023/07/02 07:22:21;;;;;;;4.43;1.10;;;;;;;-145.41;100.00;58600.66;4972167;28;20034;-73
2023/07/02 07:24:46;;;;;;;4.13;1.20;;;;;;;-145.41;100.00;58600.66;4972484;28;20386;-73
2023/07/02 07:27:11;;;;;;;2.22;1.08;;;;;;;-145.41;100.00;58600.66;4972290;28;20553;-73
2023/07/02 07:29:37;;;;;;;2.70;1.38;;;;;;;-145.41;100.00;58600.66;4971833;28;20045;-73
2023/07/02 07:32:02;;;;;;;2.70;1.15;;;;;;;-145.41;100.00;58600.66;4955191;28;20039;-73
2023/07/02 07:34:27;;;;;;;2.92;1.30;;;;;;;-145.41;100.00;58600.66;4955088;28;20045;-73
2023/07/02 07:36:53;;;;;;;3.22;1.30;;;;;;;-145.41;100.00;58600.66;4971362;28;20043;-73
2023/07/02 07:39:18;;;;;;;2.60;1.02;;;;;;;-145.41;100.00;58600.66;4970578;28;20110;-73
2023/07/02 07:41:48;;;;;;;3.55;1.40;;;;;;;-145.41;100.00;58600.66;4954574;28;20113;-73
2023/07/02 07:44:13;;;;;;;2.45;1.10;;;;;;;-145.41;100.00;58600.66;4972063;28;20083;-73
2023/07/02 07:46:38;;;;;;;2.40;1.33;;;;;;;-145.41;100.00;58600.66;4972107;28;20439;-73
2023/07/02 07:49:04;;;;;;;2.50;1.20;;;;;;;-145.41;100.00;58600.66;4970889;28;20482;-73
2023/07/02 07:51:29;;;;;;;1.80;0.98;;;;;;;-145.41;100.00;58600.66;4971851;28;20712;-73
2023/07/02 07:53:54;;;;;;;5.97;1.40;;;;;;;-145.41;100.00;58600.66;4952019;28;20506;-73
2023/07/02 07:56:19;;;;;;;4.13;1.38;;;;;;;-145.41;100.00;58600.66;4971118;28;20035;-73
2023/07/02 07:58:45;;;;;;;3.30;1.73;;;;;;;-145.41;100.00;58600.66;4970984;28;20039;-74
2023/07/02 08:01:10;;;;;;;3.20;1.30;;;;;;;-145.41;100.00;58600.66;4968827;28;20058;-73
2023/07/02 08:03:37;;;;;;;2.25;1.20;;;;;;;-145.41;100.00;58600.66;4954577;28;20031;-73
2023/07/02 08:06:02;;;;;;;3.35;1.27;;;;;;;-145.41;100.00;58600.66;4971968;28;20058;-73
2023/07/02 08:08:28;;;;;;;3.80;2.13;;;;;;;-145.41;100.00;58600.66;4971715;28;20509;-73
2023/07/02 08:10:53;;;;;;;2.80;1.45;;;;;;;-145.41;100.00;58600.66;4971467;28;20035;-73
2023/07/02 08:13:18;;;;;;;4.60;1.73;;;;;;;-145.41;100.00;58600.66;4954336;28;20038;-72
2023/07/02 08:15:44;;;;;;;2.65;1.33;;;;;;;-145.41;100.00;58600.66;4969264;28;20058;-74
2023/07/02 08:18:11;;;;;;;3.08;1.42;;;;;;;-145.41;100.00;58600.66;4971849;28;20055;-73
2023/07/02 08:20:36;;;;;;;5.20;1.70;;;;;;;-145.41;100.00;58600.66;4953733;28;20042;-73
2023/07/02 08:23:02;;;;;;;2.70;1.40;;;;;;;-145.41;100.00;58600.66;4972010;28;20050;-73
2023/07/02 08:25:27;;;;;;;3.13;1.33;;;;;;;-145.41;100.00;58600.66;4954450;28;20093;-73
2023/07/02 08:27:52;;;;;;;3.30;1.40;;;;;;;-145.41;100.00;58600.66;4971278;28;20051;-72
2023/07/02 08:30:18;;;;;;;4.75;1.48;;;;;;;-145.41;100.00;58600.66;4970812;28;20069;-73
2023/07/02 08:32:43;;;;;;;5.25;1.60;;;;;;;-145.41;100.00;58600.66;4969697;28;20037;-73
2023/07/02 08:35:08;;;;;;;2.53;1.40;;;;;;;-145.41;100.00;58600.66;4971515;28;20038;-73
2023/07/02 08:37:34;;;;;;;3.55;1.48;;;;;;;-145.41;100.00;58600.66;4971287;28;20038;-74
2023/07/02 08:39:59;;;;;;;3.75;1.25;;;;;;;-145.41;100.00;58600.66;4971121;28;20038;-73
2023/07/02 08:42:29;;;;;;;5.53;1.42;;;;;;;-145.41;100.00;58600.66;4954786;28;20043;-74
2023/07/02 08:44:57;;;;;;;4.85;1.55;;;;;;;-145.41;100.00;58600.66;4971531;28;20031;-74
2023/07/02 08:47:22;;;;;;;4.47;2.15;;;;;;;-145.41;100.00;58600.66;4959912;28;20567;-73
2023/07/02 08:49:48;;;;;;;3.72;1.75;;;;;;;-145.41;100.00;58600.66;4957003;28;20039;-73
2023/07/02 08:52:13;;;;;;;3.00;1.33;;;;;;;-145.41;100.00;58600.66;4974379;28;20031;-72
2023/07/02 08:54:39;;;;;;;2.80;1.60;;;;;;;-145.41;100.00;58600.66;4972606;28;20062;-74
2023/07/02 08:57:05;;;;;;;4.97;1.60;;;;;;;-145.41;100.00;58600.66;4956701;28;20042;-73
2023/07/02 08:59:31;;;;;;;6.03;1.80;;;;;;;-145.41;100.00;58600.66;4956861;28;20045;-73
2023/07/02 09:01:56;;;;;;;2.47;1.50;;;;;;;-145.41;100.00;58600.66;4975030;28;20042;-73
2023/07/02 09:04:24;;;;;;;4.45;1.80;;;;;;;-145.41;100.00;58600.66;4975006;28;20114;-73
2023/07/02 09:07:11;;;;;;;2.45;1.40;;;;;;;-145.41;100.00;58600.66;4973232;28;20086;-73
2023/07/02 09:09:47;;;;;;;3.00;1.60;;;;;;;-145.41;100.00;58600.66;4972226;28;20129;-73
2023/07/02 09:12:29;;;;;;;3.65;1.40;;;;;;;-145.41;100.00;58600.66;4971612;28;20035;-73
2023/07/02 09:14:57;;;;;;;4.05;2.08;;;;;;;-145.41;100.00;58600.66;4955462;28;20034;-73
2023/07/02 09:17:28;;;;;;;5.07;1.75;;;;;;;-145.41;100.00;58600.66;4952540;28;20038;-73
2023/07/02 09:19:53;;;;;;;2.13;1.30;;;;;;;-145.41;100.00;58600.66;4973450;28;20108;-73
2023/07/02 09:22:19;;;;;;;2.58;1.63;;;;;;;-145.41;100.00;58600.66;4974432;28;20031;-73
2023/07/02 09:24:55;;;;;;;3.17;1.52;;;;;;;-145.41;100.00;58600.66;4974274;28;20497;-73
2023/07/02 09:27:21;;;;;;;4.20;1.67;;;;;;;-145.41;100.00;58600.66;4950572;28;20043;-73
2023/07/02 09:29:52;;;;;;;3.47;1.73;;;;;;;-145.41;100.00;58600.66;4971648;28;20035;-72
2023/07/02 09:32:26;;;;;;;3.03;1.50;;;;;;;-145.41;100.00;58600.66;4973463;28;20474;-73
2023/07/02 09:34:54;;;;;;;3.30;1.70;;;;;;;-145.41;100.00;58600.66;4973769;28;20268;-73
2023/07/02 09:37:19;;;;;;;2.35;1.55;;;;;;;-145.41;100.00;58600.66;4974211;28;20498;-73
2023/07/02 09:39:49;;;;;;;3.45;1.73;;;;;;;-145.41;100.00;58600.66;4956519;28;20041;-73
2023/07/02 09:42:16;;;;;;;2.60;1.30;;;;;;;-145.41;100.00;58600.66;4974194;28;20103;-73
2023/07/02 09:44:42;;;;;;;2.30;1.30;;;;;;;-145.41;100.00;58600.66;4971660;28;20035;-73
2023/07/02 09:47:09;;;;;;;3.50;1.73;;;;;;;-145.41;100.00;58600.66;4973552;28;20038;-73
2023/07/02 09:49:36;;;;;;;3.65;1.60;;;;;;;-145.41;100.00;58600.66;4956585;28;20039;-73
2023/07/02 09:52:06;;;;;;;5.20;1.73;;;;;;;-145.41;100.00;58600.66;4973679;28;20034;-72
2023/07/02 09:54:32;;;;;;;2.30;1.40;;;;;;;-145.41;100.00;58600.66;4956923;28;20076;-73
2023/07/02 09:56:58;;;;;;;3.53;1.40;;;;;;;-145.41;100.00;58600.66;4956560;28;20066;-73
2023/07/02 09:59:24;;;;;;;2.70;1.50;;;;;;;-145.41;100.00;58600.66;4973192;28;20034;-73
2023/07/02 10:01:50;;;;;;;2.00;1.10;;;;;;;-145.41;100.00;58600.66;4973182;28;20089;-73
2023/07/02 10:04:19;;;;;;;4.20;1.17;;;;;;;-145.41;100.00;58600.66;4972949;28;20114;-73
2023/07/02 10:06:46;;;;;;;4.38;1.33;;;;;;;-145.41;100.00;58600.66;4973558;28;20027;-73
2023/07/02 10:09:11;;;;;;;2.17;1.08;;;;;;;-145.41;100.00;58600.66;4972369;28;20038;-73
2023/07/02 10:11:37;;;;;;;2.50;1.40;;;;;;;-145.41;100.00;58600.66;4973863;28;20034;-72
2023/07/02 10:14:02;;;;;;;4.78;1.17;;;;;;;-145.41;100.00;58600.66;4971404;28;20042;-73
2023/07/02 10:16:27;;;;;;;3.03;1.50;;;;;;;-145.41;100.00;58600.66;4956520;28;20105;-73
2023/07/02 10:19:07;;;;;;;3.17;1.10;;;;;;;-145.41;100.00;58600.66;4971844;28;20498;-73
2023/07/02 10:21:33;;;;;;;3.17;1.33;;;;;;;-145.41;100.00;58600.66;4972380;28;20041;-72
2023/07/02 10:24:15;;;;;;;3.17;1.35;;;;;;;-145.41;100.00;58600.66;4971988;28;20043;-73
2023/07/02 10:26:55;;;;;;;2.97;1.00;;;;;;;-145.41;100.00;58600.66;4970949;28;20081;-73
2023/07/02 10:29:23;;;;;;;2.58;1.20;;;;;;;-145.41;100.00;58600.66;4972331;28;20041;-74
2023/07/02 10:31:49;;;;;;;2.67;1.35;;;;;;;-145.41;100.00;58600.66;4973310;28;20033;-73
2023/07/02 10:34:15;;;;;;;2.75;1.40;;;;;;;-145.41;100.00;58600.66;4955953;28;20042;-73
2023/07/02 10:36:40;;;;;;;2.20;1.10;;;;;;;-145.41;100.00;58600.66;4972160;28;20023;-74
2023/07/02 10:39:06;;;;;;;3.72;1.10;;;;;;;-145.41;100.00;58600.66;4970414;28;20489;-74
2023/07/02 10:41:31;;;;;;;3.83;1.90;;;;;;;-145.41;100.00;58600.66;4972596;28;20038;-72
2023/07/02 10:44:06;;;;;;;4.15;2.38;;;;;;;-145.41;100.00;58600.66;4973333;28;20045;-73
2023/07/02 10:46:31;;;;;;;5.28;1.90;;;;;;;-145.41;100.00;58600.66;4969454;28;20034;-73
2023/07/02 10:48:57;;;;;;;12.93;3.22;;;;;;;-145.41;100.00;58600.66;4971474;28;20516;-72
2023/07/02 10:51:23;;;;;;;5.82;2.72;;;;;;;-145.41;100.00;58600.66;4952486;28;20497;-72
2023/07/02 10:54:04;;;;;;;5.40;2.45;;;;;;;-145.41;100.00;58600.66;4954991;28;20049;-73
2023/07/02 10:56:30;;;;;;;6.40;2.63;;;;;;;-145.41;100.00;58600.66;4971875;28;20638;-73
2023/07/02 10:58:56;;;;;;;7.18;3.28;;;;;;;-145.41;100.00;58600.66;4972041;28;20030;-73
2023/07/02 11:01:30;;;;;;;6.80;3.60;;;;;;;-145.41;100.00;58600.66;4969745;28;20141;-73
2023/07/02 11:03:57;;;;;;;6.90;3.17;;;;;;;-145.41;100.00;58600.66;4970976;28;20034;-73
2023/07/02 11:06:23;;;;;;;7.75;3.50;;;;;;;-145.41;100.00;58600.66;4971989;28;20097;-73